createdAt,value
2023-02-02T00:01:30.151Z,98944.94
2023-02-02T00:03:58.079Z,98944.25
2023-02-02T00:06:29.172Z,98945.16
2023-02-02T00:08:59.315Z,98938.50
2023-02-02T00:11:27.359Z,98934.66
2023-02-02T00:13:55.320Z,98932.69
2023-02-02T00:16:29.075Z,98937.38
2023-02-02T00:19:03.380Z,98928.72
2023-02-02T00:21:30.808Z,98921.59
2023-02-02T00:23:58.275Z,98919.72
2023-02-02T00:26:26.375Z,98903.66
2023-02-02T00:28:53.955Z,98901.91
2023-02-02T00:31:22.812Z,98893.25
2023-02-02T00:33:51.542Z,98893.47
2023-02-02T00:36:20.229Z,98887.50
2023-02-02T00:38:49.238Z,98882.97
2023-02-02T00:41:17.320Z,98878.25
2023-02-02T00:43:45.269Z,98882.00
2023-02-02T00:46:18.972Z,98878.38
2023-02-02T00:48:46.696Z,98879.91
2023-02-02T00:51:13.978Z,98879.56
2023-02-02T00:53:41.360Z,98886.22
2023-02-02T00:56:08.724Z,98883.50
2023-02-02T00:58:36.122Z,98883.50
2023-02-02T01:01:03.848Z,98885.75
2023-02-02T01:03:31.504Z,98874.25
2023-02-02T01:05:58.848Z,98868.84
2023-02-02T01:08:26.337Z,98862.06
2023-02-02T01:10:53.642Z,98862.78
2023-02-02T01:13:23.183Z,98862.78
2023-02-02T01:15:56.940Z,98871.34
2023-02-02T01:18:24.755Z,98870.50
2023-02-02T01:21:05.576Z,98873.09
2023-02-02T01:23:35.167Z,98869.66
2023-02-02T01:26:07.914Z,98880.44
2023-02-02T01:28:37.104Z,98871.53
2023-02-02T01:31:12.746Z,98874.56
2023-02-02T01:33:41.226Z,98868.72
2023-02-02T01:36:13.645Z,98867.41
2023-02-02T01:38:42.257Z,98875.34
2023-02-02T01:41:16.701Z,98870.91
2023-02-02T01:43:46.767Z,98862.91
2023-02-02T01:46:20.742Z,98866.16
2023-02-02T01:49:12.932Z,98853.28
2023-02-02T01:51:47.971Z,98851.53
2023-02-02T01:54:31.561Z,98848.81
2023-02-02T01:57:09.618Z,98838.25
2023-02-02T01:59:38.673Z,98832.84
2023-02-02T02:02:07.543Z,98838.59
2023-02-02T02:04:35.451Z,98843.50
2023-02-02T02:07:05.423Z,98838.09
2023-02-02T02:09:34.536Z,98841.38
2023-02-02T02:12:02.518Z,98839.47
2023-02-02T02:14:48.420Z,98845.88
2023-02-02T02:17:49.210Z,98836.16
2023-02-02T02:21:12.331Z,98830.03
2023-02-02T02:24:27.286Z,98830.50
2023-02-02T02:27:26.816Z,98844.78
2023-02-02T02:30:12.240Z,98834.31
2023-02-02T02:32:56.651Z,98831.50
2023-02-02T02:35:41.469Z,98827.16
2023-02-02T02:38:27.064Z,98830.19
2023-02-02T02:41:03.627Z,98832.19
2023-02-02T02:43:42.641Z,98836.22
2023-02-02T02:46:12.152Z,98820.53
2023-02-02T02:48:39.744Z,98831.81
2023-02-02T02:51:35.785Z,98825.97
2023-02-02T02:54:03.894Z,98823.75
2023-02-02T02:56:58.153Z,98820.84
2023-02-02T02:59:55.977Z,98822.34
2023-02-02T03:02:47.227Z,98813.13
2023-02-02T03:05:29.759Z,98816.88
2023-02-02T03:08:31.706Z,98804.34
2023-02-02T03:11:02.494Z,98796.09
2023-02-02T03:13:32.085Z,98802.94
2023-02-02T03:16:00.104Z,98803.47
2023-02-02T03:18:31.115Z,98818.50
2023-02-02T03:20:59.534Z,98826.63
2023-02-02T03:23:27.687Z,98814.91
2023-02-02T03:25:55.962Z,98818.78
2023-02-02T03:28:25.520Z,98812.13
2023-02-02T03:30:55.259Z,98809.66
2023-02-02T03:33:23.355Z,98810.00
2023-02-02T03:35:50.856Z,98792.81
2023-02-02T03:38:18.405Z,98774.19
2023-02-02T03:40:45.783Z,98779.47
2023-02-02T03:43:13.076Z,98761.47
2023-02-02T03:45:40.843Z,98760.06
2023-02-02T03:48:08.299Z,98758.16
2023-02-02T03:50:37.437Z,98750.44
2023-02-02T03:53:05.230Z,98756.97
2023-02-02T03:55:32.620Z,98747.38
2023-02-02T03:57:59.984Z,98738.47
2023-02-02T04:00:27.518Z,98727.22
2023-02-02T04:02:55.096Z,98740.19
2023-02-02T04:05:22.773Z,98731.06
2023-02-02T04:07:50.419Z,98730.25
2023-02-02T04:10:18.684Z,98715.88
2023-02-02T04:12:46.156Z,98714.00
2023-02-02T04:15:13.523Z,98712.06
2023-02-02T04:17:40.859Z,98713.44
2023-02-02T04:20:08.914Z,98702.00
2023-02-02T04:22:36.345Z,98699.75
2023-02-02T04:25:03.928Z,98701.78
2023-02-02T04:27:33.867Z,98701.19
2023-02-02T04:30:01.211Z,98706.94
2023-02-02T04:32:28.556Z,98692.78
2023-02-02T04:34:55.883Z,98694.78
2023-02-02T04:37:23.335Z,98700.75
2023-02-02T04:39:50.859Z,98688.13
2023-02-02T04:42:18.375Z,98693.03
2023-02-02T04:44:46.242Z,98694.31
2023-02-02T04:47:13.670Z,98695.00
2023-02-02T04:49:41.363Z,98705.88
2023-02-02T04:52:11.472Z,98695.09
2023-02-02T04:54:38.896Z,98702.84
2023-02-02T04:57:06.190Z,98708.09
2023-02-02T04:59:33.625Z,98706.94
2023-02-02T05:02:02.219Z,98712.44
2023-02-02T05:04:29.738Z,98710.69
2023-02-02T05:06:57.031Z,98718.63
2023-02-02T05:09:24.680Z,98711.28
2023-02-02T05:11:51.972Z,98723.78
2023-02-02T05:14:20.304Z,98720.97
2023-02-02T05:16:47.738Z,98723.56
2023-02-02T05:19:16.989Z,98721.31
2023-02-02T05:21:45.342Z,98722.94
2023-02-02T05:24:12.802Z,98730.59
2023-02-02T05:26:40.237Z,98729.84
2023-02-02T05:29:09.277Z,98727.41
2023-02-02T05:31:36.821Z,98730.59
2023-02-02T05:34:06.862Z,98735.81
2023-02-02T05:36:35.487Z,98736.28
2023-02-02T05:39:02.877Z,98736.28
2023-02-02T05:41:30.408Z,98738.13
2023-02-02T05:43:59.969Z,98736.97
2023-02-02T05:46:27.855Z,98727.34
2023-02-02T05:48:55.258Z,98739.75
2023-02-02T05:51:29.557Z,98730.25
2023-02-02T05:53:57.256Z,98723.97
2023-02-02T05:56:24.764Z,98731.34
2023-02-02T05:58:52.215Z,98730.03
2023-02-02T06:01:21.633Z,98726.25
2023-02-02T06:03:49.108Z,98722.25
2023-02-02T06:06:16.667Z,98733.19
2023-02-02T06:08:44.039Z,98726.00
2023-02-02T06:11:13.964Z,98714.16
2023-02-02T06:13:42.572Z,98717.47
2023-02-02T06:16:11.226Z,98716.25
2023-02-02T06:18:38.822Z,98717.09
2023-02-02T06:21:07.099Z,98703.88
2023-02-02T06:23:35.122Z,98704.31
2023-02-02T06:26:04.386Z,98705.53
2023-02-02T06:28:32.230Z,98713.34
2023-02-02T06:31:07.570Z,98707.97
2023-02-02T06:33:35.543Z,98704.84
2023-02-02T06:36:06.498Z,98710.44
2023-02-02T06:38:34.026Z,98712.88
2023-02-02T06:41:03.156Z,98709.56
2023-02-02T06:43:31.023Z,98697.69
2023-02-02T06:45:58.808Z,98690.13
2023-02-02T06:48:27.139Z,98688.16
2023-02-02T06:50:57.469Z,98696.94
2023-02-02T06:53:26.590Z,98708.59
2023-02-02T06:56:01.215Z,98709.97
2023-02-02T06:58:31.213Z,98714.34
2023-02-02T07:01:13.844Z,98687.53
2023-02-02T07:03:41.811Z,98672.88
2023-02-02T07:06:22.740Z,98669.88
2023-02-02T07:09:01.789Z,98660.50
2023-02-02T07:11:35.217Z,98683.72
2023-02-02T07:14:04.564Z,98706.94
2023-02-02T07:16:32.561Z,98718.25
2023-02-02T07:18:59.912Z,98716.00
2023-02-02T07:21:35.794Z,98679.53
2023-02-02T07:24:05.711Z,98701.06
2023-02-02T07:26:35.960Z,98722.16
2023-02-02T07:29:04.604Z,98721.47
2023-02-02T07:31:34.799Z,98710.59
2023-02-02T07:34:03.468Z,98691.00
2023-02-02T07:36:30.804Z,98679.25
2023-02-02T07:38:58.468Z,98674.03
2023-02-02T07:41:25.839Z,98665.69
2023-02-02T07:43:53.267Z,98662.16
2023-02-02T07:46:21.032Z,98654.84
2023-02-02T07:48:49.135Z,98680.31
2023-02-02T07:51:18.205Z,98696.63
2023-02-02T07:53:48.618Z,98719.00
2023-02-02T07:56:25.867Z,98742.31
2023-02-02T07:58:55.337Z,98763.88
2023-02-02T08:01:26.324Z,98777.53
2023-02-02T08:03:56.385Z,98804.09
2023-02-02T08:06:31.458Z,98808.19
2023-02-02T08:09:00.499Z,98825.41
2023-02-02T08:11:29.376Z,98833.69
2023-02-02T08:14:00.051Z,98844.22
2023-02-02T08:16:30.071Z,98849.63
2023-02-02T08:18:58.716Z,98844.16
2023-02-02T08:21:26.636Z,98867.22
2023-02-02T08:23:54.627Z,98867.81
2023-02-02T08:26:29.001Z,98860.78
2023-02-02T08:29:05.661Z,98875.00
2023-02-02T08:31:38.123Z,98874.31
2023-02-02T08:34:05.827Z,98870.03
2023-02-02T08:36:36.943Z,98883.69
2023-02-02T08:39:10.001Z,98885.59
2023-02-02T08:41:39.333Z,98906.13
2023-02-02T08:44:11.328Z,98913.78
2023-02-02T08:46:39.134Z,98925.69
2023-02-02T08:49:07.065Z,98940.84
2023-02-02T08:51:34.566Z,98945.63
2023-02-02T08:54:01.955Z,98948.75
2023-02-02T08:56:29.262Z,98964.84
2023-02-02T08:58:58.748Z,98989.03
2023-02-02T09:01:29.578Z,99004.81
2023-02-02T09:04:01.347Z,99016.16
2023-02-02T09:06:40.935Z,99021.22
2023-02-02T09:09:13.281Z,99032.53
2023-02-02T09:11:41.605Z,99030.63
2023-02-02T09:14:12.506Z,99036.19
2023-02-02T09:16:40.681Z,99040.72
2023-02-02T09:19:08.455Z,99044.81
2023-02-02T09:21:37.235Z,99045.78
2023-02-02T09:24:11.825Z,99041.13
2023-02-02T09:26:40.562Z,99030.34
2023-02-02T09:29:13.386Z,99033.63
2023-02-02T09:31:40.931Z,99042.91
2023-02-02T09:34:12.257Z,99048.75
2023-02-02T09:36:41.584Z,99044.69
2023-02-02T09:39:12.763Z,99037.56
2023-02-02T09:41:40.573Z,99045.50
2023-02-02T09:45:10.633Z,99036.06
2023-02-02T09:48:02.189Z,99047.00
2023-02-02T09:50:46.463Z,99034.97
2023-02-02T09:53:20.231Z,99031.88
2023-02-02T09:55:56.999Z,99037.84
2023-02-02T09:58:51.181Z,99031.44
2023-02-02T10:01:27.033Z,99034.06
2023-02-02T10:04:15.819Z,99035.53
2023-02-02T10:06:48.989Z,99031.44
2023-02-02T10:09:48.152Z,99038.78
2023-02-02T10:12:32.082Z,99046.97
2023-02-02T10:15:25.806Z,99047.50
2023-02-02T10:18:20.965Z,99047.09
2023-02-02T10:21:05.036Z,99036.75
2023-02-02T10:23:40.103Z,99032.53
2023-02-02T10:26:25.917Z,99027.50
2023-02-02T10:29:26.306Z,99037.16
2023-02-02T10:32:23.907Z,99028.97
2023-02-02T10:35:11.091Z,99033.22
2023-02-02T10:37:58.103Z,99034.97
2023-02-02T10:41:07.305Z,99037.00
2023-02-02T10:44:29.920Z,99019.69
2023-02-02T10:47:03.969Z,99013.50
2023-02-02T10:49:36.737Z,99017.81
2023-02-02T10:52:11.050Z,99015.78
2023-02-02T10:55:14.743Z,99016.09
2023-02-02T10:58:12.020Z,99021.09
2023-02-02T11:00:46.267Z,99017.75
2023-02-02T11:03:17.808Z,99004.97
2023-02-02T11:06:04.641Z,98999.66
2023-02-02T11:08:46.341Z,98978.88
2023-02-02T11:11:40.198Z,98969.94
2023-02-02T11:14:07.605Z,98979.81
2023-02-02T11:16:46.431Z,98961.13
2023-02-02T11:19:19.810Z,98961.84
2023-02-02T11:21:54.137Z,98956.53
2023-02-02T11:24:39.020Z,98953.78
2023-02-02T11:27:27.626Z,98956.25
2023-02-02T11:29:59.384Z,98948.22
2023-02-02T11:32:30.166Z,98957.91
2023-02-02T11:35:20.809Z,98954.47
2023-02-02T11:38:15.752Z,98941.41
2023-02-02T11:40:55.495Z,98943.63
2023-02-02T11:43:41.095Z,98945.94
2023-02-02T11:46:21.089Z,98953.00
2023-02-02T11:49:04.368Z,98945.47
2023-02-02T11:51:32.742Z,98934.81
2023-02-02T11:54:30.514Z,98927.91
2023-02-02T11:57:02.761Z,98925.94
2023-02-02T11:59:38.228Z,98915.78
2023-02-02T12:02:29.533Z,98919.19
2023-02-02T12:05:35.086Z,98919.41
2023-02-02T12:08:02.473Z,98927.59
2023-02-02T12:10:44.149Z,98934.69
2023-02-02T12:13:52.155Z,98932.16
2023-02-02T12:16:36.045Z,98931.78
2023-02-02T12:19:28.388Z,98932.16
2023-02-02T12:22:29.609Z,98922.50
2023-02-02T12:25:15.282Z,98920.50
2023-02-02T12:27:57.402Z,98914.13
2023-02-02T12:30:59.277Z,98892.16
2023-02-02T12:34:04.611Z,98912.63
2023-02-02T12:37:02.715Z,98919.03
2023-02-02T12:39:45.309Z,98915.81
2023-02-02T12:42:48.596Z,98917.38
2023-02-02T12:45:51.648Z,98915.75
2023-02-02T12:49:11.054Z,98934.13
2023-02-02T12:52:23.419Z,98935.31
2023-02-02T12:54:57.437Z,98931.59
2023-02-02T12:57:37.029Z,98924.56
2023-02-02T13:00:35.308Z,98933.81
2023-02-02T13:03:21.389Z,98926.97
2023-02-02T13:06:22.797Z,98917.13
2023-02-02T13:09:03.317Z,98925.56
2023-02-02T13:11:49.781Z,98926.59
2023-02-02T13:14:23.639Z,98944.81
2023-02-02T13:16:59.461Z,98922.59
2023-02-02T13:19:35.512Z,98918.06
2023-02-02T13:22:10.300Z,98910.25
2023-02-02T13:24:42.532Z,98914.38
2023-02-02T13:27:17.786Z,98913.16
2023-02-02T13:29:57.692Z,98919.75
2023-02-02T13:32:38.215Z,98926.06
2023-02-02T13:35:17.822Z,98925.16
2023-02-02T13:38:10.122Z,98935.94
2023-02-02T13:40:41.195Z,98938.47
2023-02-02T13:43:39.196Z,98934.03
2023-02-02T13:46:27.776Z,98937.06
2023-02-02T13:49:15.101Z,98939.00
2023-02-02T13:52:07.959Z,98942.91
2023-02-02T13:55:32.514Z,98941.81
2023-02-02T13:58:29.829Z,98944.28
2023-02-02T14:01:05.902Z,98942.53
2023-02-02T14:03:51.230Z,98936.72
2023-02-02T14:06:22.465Z,98926.88
2023-02-02T14:08:57.168Z,98927.91
2023-02-02T14:12:02.743Z,98924.69
2023-02-02T14:14:34.473Z,98935.34
2023-02-02T14:17:33.498Z,98951.13
2023-02-02T14:20:04.178Z,98947.28
2023-02-02T14:22:52.490Z,98937.41
2023-02-02T14:25:47.633Z,98934.69
2023-02-02T14:28:47.675Z,98936.31
2023-02-02T14:31:36.395Z,98948.88
2023-02-02T14:34:34.997Z,98952.34
2023-02-02T14:37:14.557Z,98945.53
2023-02-02T14:40:03.217Z,98941.06
2023-02-02T14:43:39.026Z,98936.16
2023-02-02T14:46:15.347Z,98928.94
2023-02-02T14:49:02.972Z,98949.16
2023-02-02T14:51:34.887Z,98941.13
2023-02-02T14:54:07.423Z,98934.16
2023-02-02T14:56:52.933Z,98920.97
2023-02-02T14:59:38.576Z,98932.97
2023-02-02T15:02:19.966Z,98936.81
2023-02-02T15:04:49.024Z,98944.06
2023-02-02T15:07:25.463Z,98952.91
2023-02-02T15:09:58.222Z,98951.97
2023-02-02T15:12:33.956Z,98959.63
2023-02-02T15:15:10.728Z,98958.09
2023-02-02T15:17:41.032Z,98957.44
2023-02-02T15:20:23.381Z,98949.38
2023-02-02T15:23:22.358Z,98951.28
2023-02-02T15:26:05.814Z,98960.19
2023-02-02T15:28:43.421Z,98960.75
2023-02-02T15:31:20.578Z,98953.22
2023-02-02T15:33:54.001Z,98952.81
2023-02-02T15:36:28.774Z,98951.47
2023-02-02T15:39:02.149Z,98956.78
2023-02-02T15:41:43.204Z,98969.25
2023-02-02T15:44:29.951Z,98969.75
2023-02-02T15:47:00.747Z,98967.72
2023-02-02T15:49:35.374Z,98964.88
2023-02-02T15:52:33.077Z,98968.69
2023-02-02T15:55:01.842Z,98981.13
2023-02-02T15:57:33.150Z,98986.72
2023-02-02T16:00:27.533Z,98976.34
2023-02-02T16:03:06.940Z,98987.78
2023-02-02T16:05:37.229Z,98995.19
2023-02-02T16:08:13.906Z,99002.25
2023-02-02T16:10:41.441Z,99003.06
2023-02-02T16:13:23.871Z,99000.75
2023-02-02T16:16:04.667Z,99007.44
2023-02-02T16:18:33.224Z,99002.25
2023-02-02T16:21:06.663Z,99005.25
2023-02-02T16:23:37.595Z,99011.53
2023-02-02T16:26:07.319Z,99013.69
2023-02-02T16:28:35.487Z,99015.38
2023-02-02T16:31:03.700Z,99019.59
2023-02-02T16:33:45.758Z,99020.53
2023-02-02T16:36:29.775Z,99024.38
2023-02-02T16:39:01.070Z,99028.44
2023-02-02T16:41:37.016Z,99029.81
2023-02-02T16:44:43.065Z,99035.94
2023-02-02T16:47:26.017Z,99033.50
2023-02-02T16:50:19.339Z,99026.25
2023-02-02T16:52:59.422Z,99036.75
2023-02-02T16:55:43.675Z,99029.81
2023-02-02T16:58:22.784Z,99027.75
2023-02-02T17:01:16.687Z,99032.66
2023-02-02T17:03:54.658Z,99040.28
2023-02-02T17:06:45.642Z,99046.94
2023-02-02T17:09:35.507Z,99049.81
2023-02-02T17:12:33.348Z,99040.53
2023-02-02T17:15:23.124Z,99045.25
2023-02-02T17:17:52.042Z,99054.38
2023-02-02T17:20:20.527Z,99053.94
2023-02-02T17:22:56.609Z,99061.28
2023-02-02T17:25:41.997Z,99062.09
2023-02-02T17:28:18.009Z,99060.19
2023-02-02T17:30:50.019Z,99052.56
2023-02-02T17:33:19.350Z,99055.41
2023-02-02T17:35:54.800Z,99049.94
2023-02-02T17:38:24.870Z,99056.03
2023-02-02T17:40:53.479Z,99056.16
2023-02-02T17:43:21.392Z,99050.56
2023-02-02T17:45:49.346Z,99050.69
2023-02-02T17:48:17.013Z,99064.84
2023-02-02T17:50:47.108Z,99065.50
2023-02-02T17:53:19.286Z,99076.44
2023-02-02T17:55:49.856Z,99073.84
2023-02-02T17:58:18.066Z,99076.16
2023-02-02T18:00:48.902Z,99067.19
2023-02-02T18:03:24.739Z,99066.38
2023-02-02T18:05:52.680Z,99072.13
2023-02-02T18:08:20.095Z,99077.97
2023-02-02T18:10:47.457Z,99073.63
2023-02-02T18:13:19.367Z,99078.53
2023-02-02T18:15:51.272Z,99076.06
2023-02-02T18:18:18.909Z,99075.81
2023-02-02T18:20:49.930Z,99064.25
2023-02-02T18:23:18.976Z,99072.69
2023-02-02T18:25:46.562Z,99068.34
2023-02-02T18:28:17.105Z,99067.38
2023-02-02T18:30:47.406Z,99076.94
2023-02-02T18:33:19.520Z,99079.66
2023-02-02T18:35:47.969Z,99080.59
2023-02-02T18:38:15.651Z,99085.09
2023-02-02T18:40:43.331Z,99083.34
2023-02-02T18:43:10.644Z,99087.81
2023-02-02T18:45:38.008Z,99080.84
2023-02-02T18:48:05.553Z,99094.06
2023-02-02T18:50:32.971Z,99097.47
2023-02-02T18:53:00.313Z,99100.88
2023-02-02T18:55:28.058Z,99089.72
2023-02-02T18:57:55.791Z,99101.03
2023-02-02T19:00:23.271Z,99109.47
2023-02-02T19:02:50.625Z,99102.66
2023-02-02T19:05:36.953Z,99107.84
2023-02-02T19:08:05.863Z,99104.28
2023-02-02T19:10:33.356Z,99107.03
2023-02-02T19:13:18.276Z,99113.00
2023-02-02T19:15:48.514Z,99105.78
2023-02-02T19:18:23.749Z,99091.22
2023-02-02T19:20:52.583Z,99102.66
2023-02-02T19:23:31.053Z,99104.88
2023-02-02T19:25:58.927Z,99098.59
2023-02-02T19:28:29.801Z,99102.38
2023-02-02T19:31:01.758Z,99101.84
2023-02-02T19:33:43.608Z,99097.25
2023-02-02T19:36:21.007Z,99114.59
2023-02-02T19:38:53.376Z,99107.38
2023-02-02T19:41:24.828Z,99101.38
2023-02-02T19:43:58.991Z,99096.91
2023-02-02T19:46:30.426Z,99105.19
2023-02-02T19:49:11.959Z,99103.53
2023-02-02T19:51:46.278Z,99123.50
2023-02-02T19:54:25.553Z,99139.13
2023-02-02T19:57:20.849Z,99145.84
2023-02-02T19:59:51.407Z,99142.97
2023-02-02T20:02:59.536Z,99145.94
2023-02-02T20:05:37.795Z,99166.31
2023-02-02T20:08:25.495Z,99170.47
2023-02-02T20:10:57.810Z,99182.00
2023-02-02T20:13:42.130Z,99183.44
2023-02-02T20:16:18.933Z,99167.28
2023-02-02T20:18:57.015Z,99178.63
2023-02-02T20:21:42.259Z,99197.81
2023-02-02T20:24:27.440Z,99207.34
2023-02-02T20:27:00.766Z,99216.88
2023-02-02T20:29:42.553Z,99219.50
2023-02-02T20:32:26.710Z,99226.53
2023-02-02T20:34:57.224Z,99229.00
2023-02-02T20:37:31.949Z,99237.22
2023-02-02T20:40:03.982Z,99243.78
2023-02-02T20:42:31.362Z,99250.59
2023-02-02T20:44:58.892Z,99242.81
2023-02-02T20:47:26.352Z,99245.16
2023-02-02T20:49:53.689Z,99254.31
2023-02-02T20:52:24.125Z,99251.81
2023-02-02T20:54:52.407Z,99260.38
2023-02-02T20:57:19.847Z,99264.31
2023-02-02T20:59:47.335Z,99268.19
2023-02-02T21:02:19.473Z,99267.34
2023-02-02T21:04:48.441Z,99273.59
2023-02-02T21:07:19.732Z,99284.22
2023-02-02T21:09:50.389Z,99285.50
2023-02-02T21:12:18.404Z,99299.09
2023-02-02T21:14:46.232Z,99305.50
2023-02-02T21:17:15.568Z,99309.22
2023-02-02T21:19:44.016Z,99318.09
2023-02-02T21:22:11.936Z,99326.56
2023-02-02T21:24:39.446Z,99326.69
2023-02-02T21:27:07.603Z,99341.22
2023-02-02T21:29:35.371Z,99343.00
2023-02-02T21:32:04.194Z,99350.16
2023-02-02T21:34:32.559Z,99360.91
2023-02-02T21:37:00.093Z,99363.91
2023-02-02T21:39:29.317Z,99363.72
2023-02-02T21:42:08.978Z,99367.44
2023-02-02T21:44:42.698Z,99369.34
2023-02-02T21:47:35.705Z,99369.53
2023-02-02T21:50:24.263Z,99382.53
2023-02-02T21:53:14.876Z,99378.38
2023-02-02T21:55:49.779Z,99375.53
2023-02-02T21:58:19.040Z,99378.63
2023-02-02T22:00:47.315Z,99380.56
2023-02-02T22:03:34.810Z,99381.06
2023-02-02T22:06:21.248Z,99375.44
2023-02-02T22:08:50.700Z,99374.59
2023-02-02T22:11:35.068Z,99369.03
2023-02-02T22:14:18.816Z,99379.31
2023-02-02T22:16:53.521Z,99372.44
2023-02-02T22:19:33.102Z,99375.09
2023-02-02T22:22:22.788Z,99382.72
2023-02-02T22:25:16.121Z,99380.97
2023-02-02T22:28:01.452Z,99381.41
2023-02-02T22:30:38.943Z,99393.47
2023-02-02T22:33:10.017Z,99406.41
2023-02-02T22:35:38.283Z,99395.19
2023-02-02T22:38:06.165Z,99402.91
2023-02-02T22:40:33.619Z,99408.69
2023-02-02T22:43:04.494Z,99407.34
2023-02-02T22:45:32.680Z,99410.63
2023-02-02T22:48:00.209Z,99406.00
2023-02-02T22:50:31.582Z,99404.31
2023-02-02T22:52:59.924Z,99401.44
2023-02-02T22:55:32.255Z,99407.34
2023-02-02T22:58:00.004Z,99410.28
2023-02-02T23:00:32.248Z,99411.13
2023-02-02T23:02:59.715Z,99419.56
2023-02-02T23:05:28.221Z,99421.50
2023-02-02T23:07:56.539Z,99428.28
2023-02-02T23:10:27.745Z,99428.69
2023-02-02T23:12:58.422Z,99437.63
2023-02-02T23:15:27.063Z,99432.59
2023-02-02T23:17:55.072Z,99441.13
2023-02-02T23:20:23.140Z,99434.88
2023-02-02T23:22:51.087Z,99437.63
2023-02-02T23:25:22.120Z,99449.13
2023-02-02T23:27:49.771Z,99449.34
2023-02-02T23:30:17.948Z,99452.22
2023-02-02T23:32:45.248Z,99455.72
2023-02-02T23:35:12.554Z,99458.56
2023-02-02T23:37:40.089Z,99458.22
2023-02-02T23:40:08.622Z,99452.25
2023-02-02T23:42:36.044Z,99460.78
2023-02-02T23:45:04.132Z,99462.53
2023-02-02T23:47:34.414Z,99465.22
2023-02-02T23:50:06.360Z,99462.75
2023-02-02T23:52:35.431Z,99456.78
2023-02-02T23:55:04.345Z,99462.00
2023-02-02T23:57:33.795Z,99460.75
